Tiempo atmosférico en la estación meteorológica de Villayón, Oneta, Asturias (410 m.)



Fecha
DESCASC
Temp. máxima en grados centígrados (hora)
DESCASC
Temp. mínima en grados centígrados (hora)
DESCASC
Temp. media en grados centígrados
DESCASC
Racha de viento máxima en m/sg (hora)
DESCASC
Velocidad máxima media en intervalos de 10 minutos(hora)
DESCASC
Precipitaciones diarias en mm
DESCASC
Precipitaciones de 00:00 a 06:00 en mm
DESCASC
Precipitaciones de 06:00 a 12:00 en mm
DESCASC
Precipitaciones de 12:00 a 18:00 en mm
DESCASC
Precipitaciones de 18:00 a 24:00 en mm
DESCASC
11-10-2019 19.9 (11:50) 12.8 (00:00) 16.3 4.72 (17:50) 3.06 (18:10) 0 0 0 0 0
20-09-2019 21.8 (14:40) 14.3 (00:00) 18 5.83 (20:50) 3.33 (17:40) 7.4 0 0 5.2 2.2
28-09-2019 20.1 (14:20) 11.3 (00:00) 15.7 4.72 (16:00) 3.33 (16:00) 0 0 0 0 0
12-10-2019 20.7 (17:10) 12.1 (00:00) 16.4 5 (13:20) 3.61 (13:20) 0 0 0 0 0
03-10-2019 23.9 (15:10) 10.4 (00:00) 17.1 7.5 (20:10) 3.61 (05:00) 0.6 0 0 0 0.6
07-10-2019 22.3 (17:00) 12.1 (00:00) 17.2 5 (14:30) 3.89 (14:50) 0 0 0 0 0
30-09-2019 24.9 (13:50) 16.4 (00:00) 20.6 7.5 (12:10) 3.89 (16:50) 0 0 0 0 0
19-09-2019 22.7 (15:50) 15 (00:00) 18.9 6.67 (17:20) 4.17 (17:20) 0 0 0 0 0
06-10-2019 17.3 (16:10) 12.7 (00:00) 15 5.83 (16:30) 4.17 (16:30) 1.6 0.8 0.6 0.2 0
17-10-2019 18 (15:00) 12.1 (00:00) 15.1 11.39 (13:00) 4.72 (13:00) 4 1.4 2.6 0 0
18-09-2019 20.3 (16:20) 14.9 (00:00) 17.6 6.67 (16:40) 4.72 (20:30) 0 0 0 0 0
25-09-2019 20.1 (17:40) 13.6 (00:00) 16.9 13.06 (10:40) 4.72 (08:00) 0 0 0 0 0
10-10-2019 18.2 (16:00) 9.5 (00:00) 13.9 7.5 (16:50) 5 (16:50) 0 0 0 0 0
09-10-2019 17.4 (13:00) 10.5 (00:00) 13.9 8.33 (17:20) 5 (16:10) 0 0 0 0 0
04-10-2019 17.3 (00:50) 13.1 (00:00) 15.2 8.06 (01:30) 5.28 (04:10) 3 2.4 0.6 0 0
26-09-2019 24.5 (15:30) 14.3 (00:00) 19.4 11.39 (23:10) 5.56 (23:10) 0 0 0 0 0
27-09-2019 19 (11:40) 14 (00:00) 16.5 13.61 (06:40) 5.56 (16:50) 0.4 0 0 0.4 0
05-10-2019 17.6 (15:40) 11.9 (00:00) 14.8 7.78 (16:30) 5.83 (16:40) 0 0 0 0 0
02-10-2019 17.8 (14:10) 11.8 (00:00) 14.8 8.06 (06:50) 5.83 (06:50) 0.4 0 0 0.4 0
29-09-2019 22.8 (12:50) 15.7 (00:00) 19.2 14.44 (11:50) 6.11 (14:00) 0 0 0 0 0
21-09-2019 24.4 (17:20) 14.2 (00:00) 19.3 13.06 (16:50) 6.39 (20:20) 10.2 0 1 0 9.2
23-09-2019 20.3 (23:30) 13.5 (00:00) 16.9 15.56 (23:20) 6.94 (23:20) 5.4 0 0 5.2 0.2
22-09-2019 20.5 (16:20) 13.9 (00:00) 17.2 14.17 (02:00) 6.94 (01:50) 0 0 0 0 0
14-10-2019 13 (13:50) 9.1 (00:00) 11.1 13.33 (07:50) 6.94 (07:20) 17.2 14 0.6 2.2 0.4
13-10-2019 18.9 (08:10) 11.9 (00:00) 15.4 13.06 (06:20) 7.5 (06:20) 24.4 0 0 10 14.4
08-10-2019 20.3 (11:30) 11.9 (00:00) 16.1 11.67 (12:00) 8.33 (12:00) 6.4 0 0 4.8 1.6
01-10-2019 21.6 (16:10) 14.6 (00:00) 18.1 12.78 (18:20) 9.17 (18:00) 0 0 0 0 0
24-09-2019 20.9 (16:40) 14.9 (00:00) 17.9 22.5 (02:40) 9.72 (03:00) 1 0 1 0 0
15-10-2019 15.6 (13:00) 9.3 (00:00) 12.5 23.33 (23:10) 9.72 (22:40) 1.4 0 0 0 1.4
16-10-2019 19.4 (13:00) 13.7 (00:00) 16.5 25.28 (07:00) 11.67 (06:50) 3.4 0 0.2 1.4 1.8

Gráficas

Temp. máximas Temp. mínimas Temp. medias Precipitaciones Rachas de viento máximas Velocidades máximas media en intervalos de 10 minutos

Datos horarios

Fecha y hora oficial Temperatura (ºC) Velocidad del viento (km/h) Dirección del viento Racha (km/h) Dirección de racha Precipitación (mm) Presión (hPa) Tendencia (hPa) Humedad (%)
2019-10-17 23:00:00 13.5 5 Noroeste 16 Noroeste 0 -- -- 80
2019-10-17 22:00:00 13.8 7 Noroeste 25 Oeste 0 -- -- 83
2019-10-17 21:00:00 14.3 5 Noroeste 20 Noroeste 0 -- -- 83
2019-10-17 20:00:00 14.8 8 Noroeste 19 Oeste 0 -- -- 82
2019-10-17 19:00:00 14.6 5 Noroeste 16 Noroeste 0 -- -- 85
2019-10-17 18:00:00 15.5 5 Noroeste 25 Noroeste 0 -- -- 84
2019-10-17 17:00:00 16.3 10 Noroeste 25 Sudoeste 0 -- -- 80
2019-10-17 16:00:00 17.5 10 Noroeste 34 Oeste 0 -- -- 68
2019-10-17 15:00:00 18 12 Oeste 35 Oeste 0 -- -- 65
2019-10-17 14:00:00 16.5 6 Oeste 33 Sur 0 -- -- 71
2019-10-17 13:00:00 16 17 Sudoeste 41 Sur 0 -- -- 69
2019-10-17 12:00:00 14.2 6 Oeste 22 Sudoeste 0 -- -- 84
2019-10-17 11:00:00 13 4 Este 18 Noroeste 0.2 -- -- 100
2019-10-17 10:00:00 12.3 11 Noroeste 26 Noroeste 2.2 -- -- 100
2019-10-17 09:00:00 14.4 5 Oeste 17 Sudoeste 0 -- -- 91
2019-10-17 08:00:00 14.3 4 Oeste 17 Sudoeste 0 -- -- 90
2019-10-17 07:00:00 14.2 5 Noroeste 16 Sur 0.2 -- -- 95
2019-10-17 06:00:00 13.7 6 Sudoeste 21 Sudoeste 0.2 -- -- 100
2019-10-17 05:00:00 13.4 4 Sur 14 Oeste 0.4 -- -- 100
2019-10-17 04:00:00 13.2 5 Oeste 11 Noroeste 0 -- -- 100
2019-10-17 03:00:00 13.5 5 Sudoeste 14 Sudeste 0.2 -- -- 100
2019-10-17 02:00:00 13.5 2 Sur 8 Oeste 0.6 -- -- 100
2019-10-17 01:00:00 14.5 5 Noroeste 13 Noroeste 0 -- -- 94
2019-10-17 00:00:00 15.1 5 Sudoeste 29 Sur 0 -- -- 90
2019-10-16 23:00:00 14.9 7 Sur 15 Sur 0.2 -- -- 90
2019-10-16 22:00:00 14.5 5 Sudoeste 29 Sudoeste 0.2 -- -- 93
2019-10-16 21:00:00 14.7 15 Sudoeste 40 Sudoeste 0.2 -- -- 92
2019-10-16 20:00:00 14.9 16 Sudoeste 52 Sudoeste 1.2 -- -- 89
2019-10-16 19:00:00 15.4 20 Sudoeste 47 Sur 0 -- -- 87
2019-10-16 18:00:00 14.9 18 Sudoeste 45 Sudoeste 1.4 -- -- 90
2019-10-16 17:00:00 16.6 24 Sudoeste 56 Sudoeste 0 -- -- 79
2019-10-16 16:00:00 17.9 30 Sudoeste 61 Sudoeste 0 -- -- 71
2019-10-16 15:00:00 19 28 Sudoeste 64 Sur 0 -- -- 66
2019-10-16 14:00:00 18.5 30 Sudoeste 68 Sudoeste 0 -- -- 66
2019-10-16 13:00:00 19.4 27 Sur 62 Sudoeste 0 -- -- 62
2019-10-16 12:00:00 17.1 27 Sudoeste 74 Sudoeste 0 -- -- 68
2019-10-16 11:00:00 17.3 30 Sudoeste 70 Sudoeste 0 -- -- 67
2019-10-16 10:00:00 15.5 32 Sudoeste 87 Sur 0.2 -- -- 71
2019-10-16 09:00:00 14.9 34 Sur 73 Sudoeste 0 -- -- 74
2019-10-16 08:00:00 14.8 30 Sudoeste 86 Sudoeste 0 -- -- 74
2019-10-16 07:00:00 15.1 40 Sudoeste 91 Sur 0 -- -- 74
2019-10-16 06:00:00 14.9 33 Sur 74 Sur 0 -- -- 74
2019-10-16 05:00:00 14.9 33 Sudoeste 73 Sur 0 -- -- 74
2019-10-16 04:00:00 15.3 30 Sudoeste 69 Sur 0 -- -- 69
2019-10-16 03:00:00 15.1 23 Sudoeste 62 Sur 0 -- -- 71
2019-10-16 02:00:00 14.9 29 Sudoeste 73 Sur 0 -- -- 72
2019-10-16 01:00:00 14.4 26 Sudoeste 67 Sur 0 -- -- 74
2019-10-16 00:00:00 14.1 27 Sudoeste 84 Sudoeste 0 -- -- 76
2019-10-15 23:00:00 14.2 26 Sudoeste 69 Sur 0 -- -- 73
2019-10-15 22:00:00 13.9 32 Sudoeste 76 Sur 0 -- -- 73
2019-10-15 21:00:00 12.6 18 Sudoeste 42 Sur 0.4 -- -- 77
2019-10-15 20:00:00 12.2 14 Sudoeste 42 Sur 0.8 -- -- 80
2019-10-15 19:00:00 12.5 21 Sudoeste 53 Sudoeste 0.2 -- -- 80
2019-10-15 18:00:00 13.6 17 Sudoeste 51 Sudoeste 0 -- -- 73
2019-10-15 17:00:00 13.9 22 Sudoeste 49 Oeste 0 -- -- 74
2019-10-15 16:00:00 14.4 18 Sudoeste 53 Sudoeste 0 -- -- 72
2019-10-15 15:00:00 14.6 14 Sudoeste 37 Sur 0 -- -- 70
2019-10-15 14:00:00 14.6 14 Sudoeste 47 Sudoeste 0 -- -- 70
2019-10-15 13:00:00 15.6 24 Sur 52 Sudoeste 0 -- -- 68
2019-10-15 12:00:00 13 21 Sudoeste 48 Sur 0 -- -- 74
2019-10-15 11:00:00 12.5 21 Sudoeste 46 Sur 0 -- -- 73
2019-10-15 10:00:00 12.1 19 Sudoeste 42 Sudoeste 0 -- -- 76
2019-10-15 09:00:00 10.9 12 Oeste 41 Sudoeste 0 -- -- 80
2019-10-15 08:00:00 10.4 19 Sudoeste 45 Oeste 0 -- -- 81
2019-10-15 07:00:00 10.8 14 Sudoeste 38 Oeste 0 -- -- 80
2019-10-15 06:00:00 10.5 10 Oeste 31 Sudoeste 0 -- -- 83
2019-10-15 05:00:00 10.4 12 Oeste 35 Sudoeste 0 -- -- 82
2019-10-15 04:00:00 10.3 10 Oeste 36 Sudoeste 0 -- -- 81
2019-10-15 03:00:00 9.8 10 Oeste 38 Sudoeste 0 -- -- 83
2019-10-15 02:00:00 9.7 15 Sudoeste 42 Sudoeste 0 -- -- 82
2019-10-15 01:00:00 9.4 16 Sudoeste 39 Sur 0 -- -- 81
2019-10-15 00:00:00 9.3 14 Sudoeste 31 Sur 0.2 -- -- 81
2019-10-14 23:00:00 9.4 10 Sudoeste 25 Sudoeste 0 -- -- 81
2019-10-14 22:00:00 9.2 7 Oeste 27 Sur 0 -- -- 83
2019-10-14 21:00:00 9.1 12 Oeste 36 Sudoeste 0.2 -- -- 85
2019-10-14 20:00:00 9.8 6 Noroeste 26 Sur 0 -- -- 83
2019-10-14 19:00:00 10.7 6 Noroeste 25 Sudoeste 0 -- -- 82
2019-10-14 18:00:00 9.8 7 Oeste 35 Oeste 2 -- -- 95
2019-10-14 17:00:00 12.8 8 Oeste 26 Oeste 0 -- -- 79
2019-10-14 16:00:00 11.9 7 Noroeste 28 Sudoeste 0 -- -- 81
2019-10-14 15:00:00 11.9 8 Sudoeste 39 Oeste 0.2 -- -- 82
2019-10-14 14:00:00 12.8 13 Oeste 31 Sudoeste 0 -- -- 79
2019-10-14 13:00:00 12.2 13 Sudoeste 44 Sudoeste 0 -- -- 76
2019-10-14 12:00:00 11.5 18 Sudoeste 39 Sur 0.2 -- -- 85
2019-10-14 11:00:00 11.8 7 Oeste 31 Sudoeste 0 -- -- 80
2019-10-14 10:00:00 11.6 13 Sudoeste 27 Sur 0 -- -- 79
2019-10-14 09:00:00 10.5 15 Sur 28 Sur 0 -- -- 89
2019-10-14 08:00:00 11.2 16 Sudoeste 48 Sudoeste 0.2 -- -- 79
2019-10-14 07:00:00 10.6 16 Sudoeste 37 Sur 0.2 -- -- 92
2019-10-14 06:00:00 10.3 11 Sudoeste 22 Sur 0.4 -- -- 98
2019-10-14 05:00:00 10.6 10 Sudoeste 24 Sur 1.4 -- -- 95
2019-10-14 04:00:00 10.3 10 Sudoeste 23 Sudoeste 5.8 -- -- 100
2019-10-14 03:00:00 10.9 5 Sudoeste 14 Oeste 4 -- -- 100
2019-10-14 02:00:00 11.2 8 Oeste 21 Noroeste 1.6 -- -- 100
2019-10-14 01:00:00 11.3 3 Norte 17 Noroeste 0.8 -- -- 100
2019-10-14 00:00:00 11.9 13 Noroeste 37 Noroeste 5.4 -- -- 100
2019-10-13 23:00:00 12.6 2 Sur 10 Oeste 1 -- -- 100
2019-10-13 22:00:00 12.7 3 Norte 8 Este 0.4 -- -- 100
2019-10-13 21:00:00 12.8 7 Este 12 Oeste 2.8 -- -- 100
2019-10-13 20:00:00 12.9 6 Nordeste 23 Este 1.8 -- -- 100
2019-10-13 19:00:00 12.6 8 Este 21 Oeste 3 -- -- 100
2019-10-13 18:00:00 12.9 2 Sudoeste 17 Noroeste 2.4 -- -- 100
2019-10-13 17:00:00 13.4 5 Noroeste 9 Noroeste 3.6 -- -- 100
2019-10-13 16:00:00 13.4 2 Este 9 Noroeste 2 -- -- 100
2019-10-13 15:00:00 13.9 2 Oeste 26 Noroeste 0.4 -- -- 100
2019-10-13 14:00:00 14.7 6 Noroeste 15 Noroeste 0 -- -- 99
2019-10-13 13:00:00 14.5 5 Este 24 Noroeste 1.6 -- -- 100
2019-10-13 12:00:00 16.4 8 Oeste 31 Sudoeste 0 -- -- 86
2019-10-13 11:00:00 17.5 8 Oeste 33 Sudoeste 0 -- -- 77
2019-10-13 10:00:00 17.8 10 Oeste 44 Sur 0 -- -- 73
2019-10-13 09:00:00 18.6 8 Sudoeste 40 Sur 0 -- -- 66
2019-10-13 08:00:00 18.7 16 Sur 41 Sur 0 -- -- 61
2019-10-13 07:00:00 18.5 13 Sur 47 Sur 0 -- -- 57
2019-10-13 06:00:00 17.9 17 Sur 37 Sudoeste 0 -- -- 58
2019-10-13 05:00:00 17.4 15 Sur 26 Sur 0 -- -- 62
2019-10-13 04:00:00 16.5 12 Sudeste 18 Sudeste 0 -- -- 70
2019-10-13 03:00:00 16.8 12 Sur 23 Sur 0 -- -- 72
2019-10-13 02:00:00 15.8 11 Sur 18 Sur 0 -- -- 83
2019-10-13 01:00:00 16.7 4 Sur 12 Sur 0 -- -- 80
2019-10-13 00:00:00 17.3 6 Sudeste 13 Sur 0 -- -- 79
2019-10-12 23:00:00 17.5 2 Oeste 5 Sudeste 0 -- -- 80
2019-10-12 22:00:00 16.6 3 Sur 7 Sudeste 0 -- -- 86
2019-10-12 21:00:00 15.3 3 Nordeste 9 Sudeste 0 -- -- 94
2019-10-12 20:00:00 15.9 0 Calma 12 Oeste 0 -- -- 92
2019-10-12 19:00:00 17.6 0 Calma 14 Noroeste 0 -- -- 84
2019-10-12 18:00:00 18.8 6 Oeste 12 Oeste 0 -- -- 80
2019-10-12 17:00:00 20.4 5 Oeste 13 Oeste 0 -- -- 75
2019-10-12 16:00:00 19.7 7 Noroeste 14 Oeste 0 -- -- 78
2019-10-12 15:00:00 19.7 5 Noroeste 15 Oeste 0 -- -- 78
2019-10-12 14:00:00 19.3 6 Oeste 18 Noroeste 0 -- -- 80
2019-10-12 13:00:00 18.2 5 Noroeste 7 Noroeste 0 -- -- 82
2019-10-12 12:00:00 17.8 0 Calma 9 Sudeste 0 -- -- 81
2019-10-12 11:00:00 15.7 2 Sudoeste 7 Noroeste 0 -- -- 94
2019-10-12 10:00:00 13.6 2 Sudoeste 9 Noroeste 0 -- -- 98
2019-10-12 09:00:00 12.5 3 Norte 7 Este 0 -- -- 99
2019-10-12 08:00:00 13 5 Sudeste 11 Noroeste 0 -- -- 97
2019-10-12 07:00:00 13.3 11 Noroeste 14 Noroeste 0 -- -- 98
2019-10-12 06:00:00 12.1 2 Sur 5 Sur 0 -- -- 100
2019-10-12 05:00:00 12.6 3 Sudeste 6 Noroeste 0 -- -- 100
2019-10-12 04:00:00 12.5 0 Calma 9 Noroeste 0 -- -- 100
2019-10-12 03:00:00 12.5 5 Norte 9 Sur 0 -- -- 100
2019-10-12 02:00:00 12.6 7 Este 13 Este 0 -- -- 100
2019-10-12 01:00:00 12.9 4 Este 8 Este 0 -- -- 100
2019-10-12 00:00:00 13.4 2 Nordeste 9 Este 0 -- -- 100
2019-10-11 23:00:00 13.6 5 Sudeste 8 Sudeste 0 -- -- 100
2019-10-11 22:00:00 13.8 3 Sur 15 Este 0 -- -- 100
2019-10-11 21:00:00 14 10 Sudeste 15 Este 0 -- -- 100
2019-10-11 20:00:00 14.1 2 Noroeste 14 Noroeste 0 -- -- 100
2019-10-11 19:00:00 14.6 9 Noroeste 14 Noroeste 0 -- -- 99
2019-10-11 18:00:00 16.7 9 Noroeste 17 Noroeste 0 -- -- 91
2019-10-11 17:00:00 18.2 7 Noroeste 14 Noroeste 0 -- -- 86
2019-10-11 16:00:00 18.5 7 Noroeste 14 Oeste 0 -- -- 86
2019-10-11 15:00:00 17.5 8 Noroeste 13 Noroeste 0 -- -- 88
2019-10-11 14:00:00 18 8 Noroeste 13 Oeste 0 -- -- 85
2019-10-11 13:00:00 17.7 6 Noroeste 8 Oeste 0 -- -- 74
2019-10-11 12:00:00 19.5 2 Oeste 10 Sur 0 -- -- 64
2019-10-11 11:00:00 17.7 2 Norte 4 Sudeste 0 -- -- 62
2019-10-11 10:00:00 16.5 3 Sur 10 Este 0 -- -- 74
2019-10-11 09:00:00 15.5 3 Sudeste 8 Este 0 -- -- 67
2019-10-11 08:00:00 14.6 4 Este 8 Este 0 -- -- 72
2019-10-11 07:00:00 15 4 Este 12 Este 0 -- -- 72
2019-10-11 06:00:00 14.1 2 Este 13 Sudoeste 0 -- -- 80
2019-10-11 05:00:00 14 3 Sudoeste 13 Sudoeste 0 -- -- 82
2019-10-11 04:00:00 13.4 4 Sudeste 6 Sudeste 0 -- -- 89
2019-10-11 03:00:00 13.1 2 Noroeste 6 Sur 0 -- -- 91
2019-10-11 02:00:00 13.3 2 Norte 7 Sudeste 0 -- -- 90
2019-10-11 01:00:00 13.4 2 Oeste 6 Sudeste 0 -- -- 90
2019-10-11 00:00:00 12.8 4 Noroeste 5 Noroeste 0 -- -- 93
2019-10-10 23:00:00 13.6 2 Oeste 8 Este 0 -- -- 90
2019-10-10 22:00:00 12.7 3 Este 8 Este 0 -- -- 95
2019-10-10 21:00:00 12.9 2 Sudeste 13 Este 0 -- -- 93
2019-10-10 20:00:00 13.9 7 Este 17 Este 0 -- -- 87
2019-10-10 19:00:00 15.5 5 Nordeste 22 Este 0 -- -- 81
2019-10-10 18:00:00 17.9 3 Oeste 19 Este 0 -- -- 73
2019-10-10 17:00:00 16.8 17 Este 27 Este 0 -- -- 72
2019-10-10 16:00:00 18.2 4 Norte 18 Noroeste 0 -- -- 72
2019-10-10 15:00:00 17 11 Noroeste 22 Noroeste 0 -- -- 77
2019-10-10 14:00:00 16.9 6 Noroeste 12 Noroeste 0 -- -- 77
2019-10-10 13:00:00 15.9 4 Oeste 8 Sudoeste 0 -- -- 77
2019-10-10 12:00:00 14.3 3 Noroeste 10 Este 0 -- -- 82
2019-10-10 11:00:00 13.9 2 Noroeste 8 Sur 0 -- -- 85
2019-10-10 10:00:00 12.2 0 Calma 5 Sudoeste 0 -- -- 90
2019-10-10 09:00:00 9.6 0 Calma 4 Nordeste 0 -- -- 95
2019-10-10 08:00:00 9.9 0 Calma 9 Sudoeste 0 -- -- 95
2019-10-10 07:00:00 9.8 5 Sudoeste 12 Sudoeste 0 -- -- 93
2019-10-10 06:00:00 10.6 3 Este 7 Este 0 -- -- 93
2019-10-10 05:00:00 11.1 3 Sudeste 5 Este 0 -- -- 91
2019-10-10 04:00:00 11.2 3 Sudeste 7 Este 0 -- -- 91
2019-10-10 03:00:00 11.1 0 Calma 5 Noroeste 0 -- -- 92
2019-10-10 02:00:00 12 0 Calma 7 Este 0 -- -- 88
2019-10-10 01:00:00 12 6 Este 9 Este 0 -- -- 91
2019-10-10 00:00:00 12.6 0 Calma 4 Sudoeste 0 -- -- 90
2019-10-09 23:00:00 12.7 0 Calma 3 Sudeste 0 -- -- 89
2019-10-09 22:00:00 12.5 0 Calma 5 Noroeste 0 -- -- 92
2019-10-09 21:00:00 12.5 0 Calma 9 Noroeste 0 -- -- 91
2019-10-09 20:00:00 12.9 5 Noroeste 22 Oeste 0 -- -- 88
2019-10-09 19:00:00 13.8 15 Noroeste 22 Noroeste 0 -- -- 84
2019-10-09 18:00:00 14.9 17 Noroeste 30 Noroeste 0 -- -- 83
2019-10-09 17:00:00 15.5 18 Noroeste 29 Noroeste 0 -- -- 78
2019-10-09 16:00:00 15.8 16 Noroeste 24 Noroeste 0 -- -- 68
2019-10-09 15:00:00 15.7 16 Noroeste 26 Noroeste 0 -- -- 67
2019-10-09 14:00:00 17 4 Noroeste 14 Sur 0 -- -- 69
2019-10-09 13:00:00 17.4 9 Sur 15 Sur 0 -- -- 70
2019-10-09 12:00:00 15.6 4 Oeste 22 Sur 0 -- -- 77
2019-10-09 11:00:00 13.5 5 Sudoeste 9 Sur 0 -- -- 86
2019-10-09 10:00:00 11.1 2 Sudeste 5 Noroeste 0 -- -- 91
2019-10-09 09:00:00 10.6 2 Noroeste 10 Sur 0 -- -- 92
2019-10-09 08:00:00 10.6 2 Norte 11 Sudeste 0 -- -- 95
2019-10-09 07:00:00 10.7 5 Oeste 14 Sur 0 -- -- 93
2019-10-09 06:00:00 10.6 5 Sudeste 10 Sur 0 -- -- 95
2019-10-09 05:00:00 10.8 5 Sur 12 Sudoeste 0 -- -- 96
2019-10-09 04:00:00 11.3 2 Nordeste 10 Sudeste -- -- -- 92
2019-10-09 03:00:00 11.6 5 Sudoeste 12 Sur 0 -- -- 96
2019-10-09 02:00:00 12 4 Sur 12 Sur 0 -- -- 97
2019-10-09 01:00:00 11.9 4 Sur 10 Sur 0 -- -- 98
2019-10-09 00:00:00 12.1 3 Sur 10 Sudeste 0 -- -- 97
2019-10-08 23:00:00 11.9 4 Sur 14 Sur 0.2 -- -- 100
2019-10-08 22:00:00 12.1 4 Sur 9 Sur 0.2 -- -- 100
2019-10-08 21:00:00 12.4 2 Sudoeste 7 Noroeste 0.6 -- -- 100
2019-10-08 20:00:00 12.5 4 Sur 7 Sudeste 0 -- -- 100
2019-10-08 19:00:00 12.9 0 Calma 9 Noroeste 0.6 -- -- 100
2019-10-08 18:00:00 13.1 2 Sudoeste 6 Sudeste 0.4 -- -- 100
2019-10-08 17:00:00 13.3 3 Sudoeste 6 Oeste 0.6 -- -- 100
2019-10-08 16:00:00 12.9 5 Noroeste 31 Noroeste 1 -- -- 100
2019-10-08 15:00:00 13.2 18 Noroeste 35 Noroeste 0.6 -- -- 100
2019-10-08 14:00:00 14.7 17 Noroeste 31 Noroeste 0.4 -- -- 100
2019-10-08 13:00:00 14.9 16 Noroeste 39 Noroeste 1.8 -- -- 100
2019-10-08 12:00:00 17.5 30 Noroeste 42 Noroeste 0 -- -- 94
2019-10-08 11:00:00 19.7 7 Noroeste 26 Sur 0 -- -- 82
2019-10-08 10:00:00 18.6 6 Noroeste 25 Sudoeste 0 -- -- 84
2019-10-08 09:00:00 18.3 11 Sudoeste 33 Sur 0 -- -- 84
2019-10-08 08:00:00 17.4 13 Sudoeste 27 Sudoeste 0 -- -- 88
2019-10-08 07:00:00 16.9 4 Oeste 14 Sudeste 0 -- -- 87
2019-10-08 06:00:00 16.9 8 Sudoeste 18 Sudoeste 0 -- -- 85
2019-10-08 05:00:00 16.6 5 Sudeste 20 Sur 0 -- -- 85
2019-10-08 04:00:00 16.9 6 Sudeste 15 Oeste 0 -- -- 88
2019-10-08 03:00:00 17.4 4 Oeste 17 Sur 0 -- -- 87
2019-10-08 02:00:00 16.8 2 Sudeste 15 Sur 0 -- -- 90
2019-10-08 01:00:00 17.5 6 Sudeste 9 Sudeste 0 -- -- 86
2019-10-08 00:00:00 17.9 0 Calma 5 Este 0 -- -- 85
2019-10-07 23:00:00 18.4 0 Calma 4 Este 0 -- -- 82
2019-10-07 22:00:00 18.5 4 Sudeste 6 Este 0 -- -- 81
2019-10-07 21:00:00 19.1 4 Este 8 Este 0 -- -- 81
2019-10-07 20:00:00 19.3 0 Calma 10 Noroeste 0 -- -- 77
2019-10-07 19:00:00 20.6 6 Oeste 11 Oeste 0 -- -- 74
2019-10-07 18:00:00 21.6 8 Noroeste 14 Noroeste 0 -- -- 70
2019-10-07 17:00:00 22.3 5 Oeste 12 Noroeste 0 -- -- 65
2019-10-07 16:00:00 20.8 12 Noroeste 17 Noroeste 0 -- -- 59
2019-10-07 15:00:00 20.8 13 Noroeste 18 Oeste 0 -- -- 60
2019-10-07 14:00:00 21.5 7 Noroeste 11 Noroeste 0 -- -- 52
2019-10-07 13:00:00 21.5 2 Oeste 9 Sudoeste 0 -- -- 53
2019-10-07 12:00:00 18.9 2 Norte 9 Sudeste 0 -- -- 58
2019-10-07 11:00:00 16.3 3 Este 12 Sudoeste 0 -- -- 83
2019-10-07 10:00:00 14.7 2 Oeste 8 Noroeste 0 -- -- 79
2019-10-07 09:00:00 12.1 4 Noroeste 8 Noroeste 0 -- -- 94
2019-10-07 08:00:00 12.8 3 Sur 13 Noroeste 0 -- -- 92
2019-10-07 07:00:00 12.8 4 Oeste 8 Sudeste 0 -- -- 95
2019-10-07 06:00:00 13 3 Este 6 Sudoeste 0 -- -- 96
2019-10-07 05:00:00 13.4 4 Noroeste 9 Noroeste 0 -- -- 95
2019-10-07 04:00:00 13.6 2 Norte 6 Este 0 -- -- 96
2019-10-07 03:00:00 13.6 0 Calma 8 Este 0 -- -- 97
2019-10-07 02:00:00 13.6 5 Este 13 Este 0 -- -- 98
2019-10-07 01:00:00 13.5 8 Este 10 Este 0 -- -- 99
2019-10-07 00:00:00 13.5 4 Sudeste 7 Sudeste 0 -- -- 100
2019-10-06 23:00:00 13.5 0 Calma 8 Sudeste 0 -- -- 100
2019-10-06 22:00:00 13.9 4 Sur 17 Este 0 -- -- 97
2019-10-06 21:00:00 14 12 Este 18 Este 0 -- -- 97
2019-10-06 20:00:00 14.1 12 Este 17 Este 0 -- -- 97
2019-10-06 19:00:00 14.4 11 Este 17 Este 0 -- -- 96
2019-10-06 18:00:00 15 7 Este 19 Este 0 -- -- 96
2019-10-06 17:00:00 15.5 13 Norte 21 Noroeste 0 -- -- 93
2019-10-06 16:00:00 17.1 12 Noroeste 19 Noroeste 0 -- -- 88
2019-10-06 15:00:00 16.5 13 Noroeste 21 Noroeste 0 -- -- 92
2019-10-06 14:00:00 16 5 Norte 19 Noroeste 0 -- -- 95
2019-10-06 13:00:00 15.4 4 Noroeste 9 Sur 0.2 -- -- 95
2019-10-06 12:00:00 14.6 2 Sur 6 Sur 0 -- -- 100
2019-10-06 11:00:00 13.7 5 Sudeste 8 Sudeste 0.2 -- -- 100
2019-10-06 10:00:00 13.2 5 Sudeste 7 Sudeste 0 -- -- 100
2019-10-06 09:00:00 13.1 5 Sudeste 9 Este 0.2 -- -- 100
2019-10-06 08:00:00 13 7 Sudoeste 13 Sudoeste 0 -- -- 100
2019-10-06 07:00:00 13 4 Noroeste 8 Oeste 0.2 -- -- 100
2019-10-06 06:00:00 12.9 5 Sudeste 10 Sur 0.8 -- -- 100
2019-10-06 05:00:00 13.3 4 Este 12 Sur 0 -- -- 96
2019-10-06 04:00:00 14.5 2 Oeste 17 Sur 0 -- -- 85
2019-10-06 03:00:00 14.6 6 Sudoeste 13 Sur 0 -- -- 84
2019-10-06 02:00:00 14.3 5 Sudoeste 17 Sur 0 -- -- 85
2019-10-06 01:00:00 13.5 4 Sudeste 11 Sudoeste 0 -- -- 89
2019-10-06 00:00:00 12.7 3 Sudeste 10 Noroeste 0 -- -- 94
2019-10-05 23:00:00 13.9 3 Sudeste 12 Este 0 -- -- 87
2019-10-05 22:00:00 13.7 6 Oeste 17 Sudeste 0 -- -- 88
2019-10-05 21:00:00 12.9 5 Noroeste 11 Noroeste 0 -- -- 91
2019-10-05 20:00:00 14 6 Este 14 Este 0 -- -- 89
2019-10-05 19:00:00 15 5 Noroeste 14 Noroeste 0 -- -- 84
2019-10-05 18:00:00 15.4 10 Noroeste 20 Noroeste 0 -- -- 85
2019-10-05 17:00:00 15.2 18 Noroeste 28 Noroeste 0 -- -- 86
2019-10-05 16:00:00 17 14 Noroeste 23 Noroeste 0 -- -- 82
2019-10-05 15:00:00 17.5 6 Sur 15 Noroeste 0 -- -- 78
2019-10-05 14:00:00 16.2 8 Noroeste 12 Oeste 0 -- -- 83
2019-10-05 13:00:00 15 3 Sudeste 6 Este 0 -- -- 89
2019-10-05 12:00:00 14.4 2 Noroeste 7 Noroeste 0 -- -- 91
2019-10-05 11:00:00 14.8 3 Sur 7 Sur 0 -- -- 90
2019-10-05 10:00:00 13.2 4 Sudeste 11 Sudoeste 0 -- -- 96
2019-10-05 09:00:00 11.9 3 Este 9 Sur 0 -- -- 99
2019-10-05 08:00:00 12.1 3 Este 13 Sudoeste 0 -- -- 99
2019-10-05 07:00:00 12.9 7 Sur 13 Sudoeste 0 -- -- 96
2019-10-05 06:00:00 13.5 4 Sur 7 Sur 0 -- -- 96
2019-10-05 05:00:00 13.5 2 Este 5 Sudeste 0 -- -- 97
2019-10-05 04:00:00 13.6 3 Este 6 Sudeste 0 -- -- 96
2019-10-05 03:00:00 13.8 6 Este 18 Este 0 -- -- 93
2019-10-05 02:00:00 13.9 5 Este 11 Este 0 -- -- 92
2019-10-05 01:00:00 13.6 2 Sudeste 9 Sudeste 0 -- -- 97
2019-10-05 00:00:00 14 4 Este 12 Este 0 -- -- 93
2019-10-04 23:00:00 14 0 Calma 13 Este 0 -- -- 95
2019-10-04 22:00:00 14 5 Este 8 Este 0 -- -- 96
2019-10-04 21:00:00 14.2 0 Calma 3 Noroeste 0 -- -- 94
2019-10-04 20:00:00 14.2 4 Noroeste 12 Noroeste 0 -- -- 92
2019-10-04 19:00:00 14.5 12 Noroeste 18 Noroeste 0 -- -- 91
2019-10-04 18:00:00 15.7 11 Noroeste 15 Noroeste 0 -- -- 89
2019-10-04 17:00:00 15.8 6 Noroeste 18 Noroeste 0 -- -- 81
2019-10-04 16:00:00 15.5 10 Noroeste 21 Noroeste 0 -- -- 84
2019-10-04 15:00:00 15.3 15 Noroeste 20 Noroeste 0 -- -- 83
2019-10-04 14:00:00 15.3 6 Noroeste 14 Noroeste 0 -- -- 87
2019-10-04 13:00:00 15.5 0 Calma 9 Sudeste 0 -- -- 87
2019-10-04 12:00:00 14.5 2 Sudeste 10 Oeste 0 -- -- 92
2019-10-04 11:00:00 13.6 3 Norte 11 Noroeste 0 -- -- 98
2019-10-04 10:00:00 13.2 0 Calma 26 Noroeste 0.4 -- -- 100
2019-10-04 09:00:00 13.7 3 Noroeste 9 Noroeste 0.2 -- -- 100
2019-10-04 08:00:00 13.9 6 Noroeste 11 Noroeste 0 -- -- 100
2019-10-04 07:00:00 13.7 2 Sudeste 5 Este 0 -- -- 100
2019-10-04 06:00:00 13.6 0 Calma 10 Oeste 0 -- -- 100
2019-10-04 05:00:00 13.7 0 Calma 26 Noroeste 0.2 -- -- 100
2019-10-04 04:00:00 14.2 19 Noroeste 27 Noroeste 0.8 -- -- 100
2019-10-04 03:00:00 14.7 10 Noroeste 28 Noroeste 1.4 -- -- 100
2019-10-04 02:00:00 15 17 Noroeste 29 Noroeste 0 -- -- 100
2019-10-04 01:00:00 17.3 5 Noroeste 9 Oeste 0 -- -- 96
2019-10-04 00:00:00 17.2 2 Sudeste 11 Sudoeste 0 -- -- 97
2019-10-03 23:00:00 17.1 5 Sur 15 Sur 0.2 -- -- 98
2019-10-03 22:00:00 17.4 8 Noroeste 26 Noroeste 0.4 -- -- 96
2019-10-03 21:00:00 19.3 4 Este 27 Oeste 0 -- -- 82
2019-10-03 20:00:00 20.4 6 Oeste 17 Sudoeste 0 -- -- 75
2019-10-03 19:00:00 21 5 Noroeste 16 Noroeste 0 -- -- 71
2019-10-03 18:00:00 21.3 10 Noroeste 16 Oeste 0 -- -- 71
2019-10-03 17:00:00 22.5 6 Oeste 21 Sudoeste 0 -- -- 66
2019-10-03 16:00:00 22.6 6 Oeste 22 Sudoeste 0 -- -- 64
2019-10-03 15:00:00 23.3 12 Sudoeste 27 Sudoeste 0 -- -- 56
2019-10-03 14:00:00 22.2 8 Sudoeste 21 Sudoeste 0 -- -- 57
2019-10-03 13:00:00 21.1 9 Sudoeste 26 Sudoeste 0 -- -- 53
2019-10-03 12:00:00 18.5 9 Noroeste 24 Sur 0 -- -- 64
2019-10-03 11:00:00 16 5 Noroeste 15 Sudeste 0 -- -- 77
2019-10-03 10:00:00 14.3 8 Sudeste 21 Sur 0 -- -- 81
2019-10-03 09:00:00 10.9 5 Sudeste 16 Sudoeste 0 -- -- 97
2019-10-03 08:00:00 11.5 6 Sudoeste 15 Sur 0 -- -- 95
2019-10-03 07:00:00 11 5 Este 13 Sur 0 -- -- 100
2019-10-03 06:00:00 11.2 4 Sudoeste 15 Sur 0 -- -- 100
2019-10-03 05:00:00 11.4 13 Sur 17 Sur 0 -- -- 99
2019-10-03 04:00:00 12.1 4 Sudoeste 10 Sudoeste 0 -- -- 97
2019-10-03 03:00:00 12.5 0 Calma 9 Sudoeste 0 -- -- 95
2019-10-03 02:00:00 12.8 6 Sudoeste 12 Este 0 -- -- 93
2019-10-03 01:00:00 13.4 8 Este 15 Este 0 -- -- 89
2019-10-03 00:00:00 13.5 0 Calma 9 Nordeste 0 -- -- 89
2019-10-02 23:00:00 13.7 9 Este 17 Este 0 -- -- 91
2019-10-02 22:00:00 13.2 7 Este 15 Este 0 -- -- 96
2019-10-02 21:00:00 13.7 3 Este 9 Nordeste 0 -- -- 93
2019-10-02 20:00:00 14.1 4 Nordeste 10 Noroeste 0 -- -- 93
2019-10-02 19:00:00 14.7 4 Noroeste 17 Noroeste 0 -- -- 90
2019-10-02 18:00:00 15.3 13 Noroeste 18 Noroeste 0 -- -- 88
2019-10-02 17:00:00 15.6 15 Noroeste 23 Noroeste 0 -- -- 88
2019-10-02 16:00:00 16.2 5 Noroeste 13 Noroeste 0 -- -- 82
2019-10-02 15:00:00 15.2 8 Noroeste 17 Noroeste 0 -- -- 86
2019-10-02 14:00:00 16.9 5 Sur 15 Sur 0 -- -- 82
2019-10-02 13:00:00 13.5 4 Sudeste 12 Noroeste 0.4 -- -- 96
2019-10-02 12:00:00 14.3 7 Noroeste 13 Noroeste 0 -- -- 88
2019-10-02 11:00:00 14.6 4 Sur 10 Sudoeste 0 -- -- 85
2019-10-02 10:00:00 14.1 4 Sudoeste 16 Sur 0 -- -- 87
2019-10-02 09:00:00 12.4 5 Sur 17 Sudoeste 0 -- -- 95
2019-10-02 08:00:00 12 5 Sudoeste 15 Oeste 0 -- -- 98
2019-10-02 07:00:00 12.1 13 Noroeste 29 Noroeste 0 -- -- 97
2019-10-02 06:00:00 13.7 7 Oeste 27 Sudoeste 0 -- -- 82
2019-10-02 05:00:00 14 8 Noroeste 21 Noroeste 0 -- -- 80
2019-10-02 04:00:00 14.1 8 Noroeste 25 Sudoeste 0 -- -- 78
2019-10-02 03:00:00 14.5 8 Noroeste 19 Noroeste 0 -- -- 74
2019-10-02 02:00:00 14.7 12 Noroeste 28 Sudoeste 0 -- -- 72
2019-10-02 01:00:00 14.9 12 Noroeste 27 Noroeste 0 -- -- 71
2019-10-02 00:00:00 14.6 9 Noroeste 31 Noroeste 0 -- -- 77
2019-10-01 23:00:00 15.2 17 Noroeste 31 Noroeste 0 -- -- 77
2019-10-01 22:00:00 15.5 18 Noroeste 34 Noroeste 0 -- -- 75
2019-10-01 21:00:00 15.6 13 Noroeste 24 Noroeste 0 -- -- 83
2019-10-01 20:00:00 15.2 10 Noroeste 23 Noroeste 0 -- -- 91
2019-10-01 19:00:00 16.4 19 Noroeste 46 Noroeste 0 -- -- 86
2019-10-01 18:00:00 17.2 33 Noroeste 42 Noroeste 0 -- -- 81
2019-10-01 17:00:00 21.2 16 Noroeste 36 Noroeste 0 -- -- 53
2019-10-01 16:00:00 21.2 24 Noroeste 39 Noroeste 0 -- -- 55
2019-10-01 15:00:00 19.7 17 Noroeste 35 Oeste 0 -- -- 62
2019-10-01 14:00:00 21.5 14 Oeste 39 Oeste 0 -- -- 55
2019-10-01 13:00:00 18.6 23 Noroeste 41 Noroeste 0 -- -- 66
2019-10-01 12:00:00 19.2 14 Noroeste 37 Noroeste 0 -- -- 66
2019-10-01 11:00:00 17.6 11 Noroeste 23 Noroeste 0 -- -- 78
2019-10-01 10:00:00 17 9 Noroeste 24 Oeste 0 -- -- 82
2019-10-01 09:00:00 16.5 8 Noroeste 18 Sudoeste 0 -- -- 85
2019-10-01 08:00:00 16.3 8 Oeste 25 Sudoeste 0 -- -- 88
2019-10-01 07:00:00 16.8 8 Noroeste 21 Noroeste 0 -- -- 85
2019-10-01 06:00:00 17 8 Noroeste 25 Oeste 0 -- -- 81
2019-10-01 05:00:00 16.9 6 Norte 35 Sudoeste 0 -- -- 81
2019-10-01 04:00:00 17.1 9 Oeste 28 Sudoeste 0 -- -- 81
2019-10-01 03:00:00 17.5 11 Sudoeste 34 Sudoeste 0 -- -- 82
2019-10-01 02:00:00 17.2 8 Noroeste 20 Oeste 0 -- -- 90
2019-10-01 01:00:00 17.4 9 Noroeste 14 Oeste 0 -- -- 93
2019-10-01 00:00:00 17.4 4 Sudeste 11 Este 0 -- -- 93
2019-09-30 23:00:00 17.6 5 Noroeste 10 Este 0 -- -- 95
2019-09-30 22:00:00 16.5 6 Sudeste 10 Sudeste 0 -- -- 100
2019-09-30 21:00:00 17.1 2 Sur 9 Este 0 -- -- 100
2019-09-30 20:00:00 17.8 2 Sur 11 Oeste 0 -- -- 99
2019-09-30 19:00:00 19.6 6 Oeste 14 Oeste 0 -- -- 89
2019-09-30 18:00:00 22.4 5 Oeste 20 Noroeste 0 -- -- 78
2019-09-30 17:00:00 22.7 13 Noroeste 22 Noroeste 0 -- -- 77
2019-09-30 16:00:00 23.3 8 Noroeste 15 Noroeste 0 -- -- 71
2019-09-30 15:00:00 23.5 8 Noroeste 26 Sudoeste 0 -- -- 75
2019-09-30 14:00:00 24.5 9 Noroeste 21 Oeste 0 -- -- 64
2019-09-30 13:00:00 23.4 8 Sudoeste 27 Sur 0 -- -- 69
2019-09-30 12:00:00 22.3 6 Noroeste 26 Sudoeste 0 -- -- 76
2019-09-30 11:00:00 21.4 11 Sur 20 Sur 0 -- -- 82
2019-09-30 10:00:00 19.5 5 Oeste 16 Sur 0 -- -- 85
2019-09-30 09:00:00 18.5 4 Este 13 Oeste 0 -- -- 90
2019-09-30 08:00:00 18.6 4 Oeste 15 Sur 0 -- -- 90
2019-09-30 07:00:00 18.1 4 Sudeste 17 Sudoeste 0 -- -- 91
2019-09-30 06:00:00 18.5 2 Noroeste 18 Sudoeste 0 -- -- 89
2019-09-30 05:00:00 18.3 4 Sudeste 12 Sudoeste 0 -- -- 89
2019-09-30 04:00:00 18.3 4 Oeste 14 Sudoeste 0 -- -- 88
2019-09-30 03:00:00 18.4 5 Noroeste 20 Oeste 0 -- -- 86
2019-09-30 02:00:00 18.1 5 Noroeste 19 Sudoeste 0 -- -- 85
2019-09-30 01:00:00 17.6 4 Noroeste 14 Sudoeste 0 -- -- 92
2019-09-30 00:00:00 16.8 2 Sudeste 10 Este 0 -- -- 100
2019-09-29 23:00:00 15.7 8 Sudeste 10 Sudeste 0 -- -- 100
2019-09-29 22:00:00 16.1 2 Sudeste 7 Noroeste 0 -- -- 100
2019-09-29 21:00:00 17.1 3 Noroeste 15 Sudoeste 0 -- -- 96
2019-09-29 20:00:00 19.2 9 Noroeste 28 Noroeste 0 -- -- 87
2019-09-29 19:00:00 20 10 Noroeste 24 Sudoeste 0 -- -- 84
2019-09-29 18:00:00 20.7 9 Oeste 28 Sur 0 -- -- 79
2019-09-29 17:00:00 21.6 12 Oeste 37 Sudoeste 0 -- -- 75
2019-09-29 16:00:00 22.2 14 Sudoeste 35 Sudoeste 0 -- -- 71
2019-09-29 15:00:00 21.5 15 Sudoeste 43 Sur 0 -- -- 74
2019-09-29 14:00:00 22 22 Sur 43 Sudoeste 0 -- -- 71
2019-09-29 13:00:00 22.4 17 Sudoeste 45 Sudoeste 0 -- -- 65
2019-09-29 12:00:00 19.8 21 Sudoeste 52 Sudoeste 0 -- -- 68
2019-09-29 11:00:00 21 14 Sudoeste 42 Sudoeste 0 -- -- 59
2019-09-29 10:00:00 19.6 14 Oeste 37 Sudoeste 0 -- -- 57
2019-09-29 09:00:00 18.6 14 Oeste 33 Oeste 0 -- -- 55
2019-09-29 08:00:00 18.9 18 Sudoeste 40 Sudoeste 0 -- -- 52
2019-09-29 07:00:00 18.6 14 Sudoeste 35 Sur 0 -- -- 49
2019-09-29 06:00:00 18.4 13 Oeste 46 Oeste 0 -- -- 44
2019-09-29 05:00:00 18.9 20 Sudoeste 51 Sudoeste 0 -- -- 41
2019-09-29 04:00:00 18.9 13 Oeste 39 Sur 0 -- -- 35
2019-09-29 03:00:00 18.5 7 Oeste 39 Sur 0 -- -- 36
2019-09-29 02:00:00 18 6 Oeste 21 Oeste 0 -- -- 44
2019-09-29 01:00:00 17.4 6 Noroeste 18 Oeste 0 -- -- 56
2019-09-29 00:00:00 16.5 3 Norte 13 Sur 0 -- -- 65
2019-09-28 23:00:00 14.5 0 Calma 10 Sur 0 -- -- 82
2019-09-28 22:00:00 13.2 3 Sur 10 Este 0 -- -- 91
2019-09-28 21:00:00 13.6 3 Sur 5 Sudeste 0 -- -- 89
2019-09-28 20:00:00 14.7 8 Oeste 13 Noroeste 0 -- -- 84
2019-09-28 19:00:00 16.7 11 Noroeste 14 Noroeste 0 -- -- 78
2019-09-28 18:00:00 18.5 5 Sur 15 Noroeste 0 -- -- 72
2019-09-28 17:00:00 18.9 10 Noroeste 17 Oeste 0 -- -- 71
2019-09-28 16:00:00 18.7 12 Noroeste 17 Noroeste 0 -- -- 70
2019-09-28 15:00:00 19.4 8 Noroeste 16 Oeste 0 -- -- 69
2019-09-28 14:00:00 18.9 9 Noroeste 15 Noroeste 0 -- -- 70
2019-09-28 13:00:00 18.4 5 Sudoeste 13 Este 0 -- -- 67
2019-09-28 12:00:00 16.6 6 Sur 14 Sur 0 -- -- 71
2019-09-28 11:00:00 15.5 3 Sudeste 10 Sudeste 0 -- -- 82
2019-09-28 10:00:00 13.5 0 Calma 9 Sudeste 0 -- -- 89
2019-09-28 09:00:00 11.4 4 Sudeste 10 Sudeste 0 -- -- 90
2019-09-28 08:00:00 11.5 4 Sudeste 9 Sudeste 0 -- -- 90
2019-09-28 07:00:00 11.7 4 Sudeste 6 Sudeste 0 -- -- 92
2019-09-28 06:00:00 12.2 3 Este 6 Este 0 -- -- 91
2019-09-28 05:00:00 12.6 0 Calma 6 Este 0 -- -- 93
2019-09-28 04:00:00 13 3 Sudeste 7 Este 0 -- -- 86
2019-09-28 03:00:00 13.4 4 Este 7 Este 0 -- -- 81
2019-09-28 02:00:00 13.6 0 Calma 10 Noroeste 0 -- -- 82
2019-09-28 01:00:00 13.9 7 Noroeste 11 Noroeste 0 -- -- 85
2019-09-28 00:00:00 14.1 0 Calma 9 Noroeste 0 -- -- 91
2019-09-27 23:00:00 14.1 4 Noroeste 14 Noroeste 0 -- -- 92
2019-09-27 22:00:00 14.3 9 Noroeste 14 Noroeste 0 -- -- 93
2019-09-27 21:00:00 14 8 Noroeste 16 Noroeste 0 -- -- 94
2019-09-27 20:00:00 14.7 15 Noroeste 32 Noroeste 0 -- -- 93
2019-09-27 19:00:00 16.1 18 Noroeste 26 Noroeste 0 -- -- 85
2019-09-27 18:00:00 17.2 14 Noroeste 27 Noroeste 0 -- -- 82
2019-09-27 17:00:00 16.5 17 Noroeste 33 Noroeste 0 -- -- 85
2019-09-27 16:00:00 15.7 13 Noroeste 24 Noroeste 0 -- -- 100
2019-09-27 15:00:00 14.8 10 Noroeste 23 Noroeste 0.2 -- -- 100
2019-09-27 14:00:00 15.6 11 Noroeste 19 Noroeste 0.2 -- -- 100
2019-09-27 13:00:00 17 7 Noroeste 22 Oeste 0 -- -- 92
2019-09-27 12:00:00 18.8 7 Noroeste 31 Sudoeste 0 -- -- 79
2019-09-27 11:00:00 17.1 8 Noroeste 27 Sur 0 -- -- 86
2019-09-27 10:00:00 16.1 4 Oeste 25 Sudoeste 0 -- -- 88
2019-09-27 09:00:00 15.2 6 Noroeste 17 Sudoeste 0 -- -- 91
2019-09-27 08:00:00 15.3 5 Nordeste 26 Oeste 0 -- -- 89
2019-09-27 07:00:00 15.6 11 Oeste 49 Sudoeste 0 -- -- 86
2019-09-27 06:00:00 16.6 8 Oeste 30 Sudoeste 0 -- -- 77
2019-09-27 05:00:00 15.8 5 Norte 33 Oeste 0 -- -- 78
2019-09-27 04:00:00 16 17 Sudoeste 36 Sudoeste 0 -- -- 76
2019-09-27 03:00:00 16.1 14 Sudoeste 40 Sur 0 -- -- 75
2019-09-27 02:00:00 16.2 13 Sudoeste 33 Sur 0 -- -- 73
2019-09-27 01:00:00 16 9 Sudoeste 31 Sur 0 -- -- 75
2019-09-27 00:00:00 16.1 10 Sudoeste 41 Sur 0 -- -- 75
2019-09-26 23:00:00 16.2 14 Sudoeste 30 Sudoeste 0 -- -- 75
2019-09-26 22:00:00 17.1 3 Sudoeste 12 Nordeste 0 -- -- 74
2019-09-26 21:00:00 17 3 Nordeste 10 Oeste 0 -- -- 80
2019-09-26 20:00:00 17.2 4 Este 9 Noroeste 0 -- -- 84
2019-09-26 19:00:00 19.3 5 Oeste 15 Noroeste 0 -- -- 75
2019-09-26 18:00:00 21 8 Oeste 19 Oeste 0 -- -- 67
2019-09-26 17:00:00 22.4 15 Noroeste 24 Noroeste 0 -- -- 56
2019-09-26 16:00:00 23.3 8 Noroeste 25 Sur 0 -- -- 54
2019-09-26 15:00:00 23.3 12 Sudoeste 24 Sudoeste 0 -- -- 50
2019-09-26 14:00:00 21.3 9 Noroeste 21 Noroeste 0 -- -- 55
2019-09-26 13:00:00 20.2 7 Noroeste 19 Noroeste 0 -- -- 58
2019-09-26 12:00:00 18.4 8 Noroeste 15 Sudoeste 0 -- -- 63
2019-09-26 11:00:00 18.3 5 Sudoeste 25 Sudoeste 0 -- -- 64
2019-09-26 10:00:00 16.1 9 Sudoeste 24 Sudoeste 0 -- -- 69
2019-09-26 09:00:00 14.4 7 Oeste 30 Sudoeste 0 -- -- 75
2019-09-26 08:00:00 14.5 9 Oeste 35 Sudoeste 0 -- -- 74
2019-09-26 07:00:00 14.7 11 Oeste 36 Sudoeste 0 -- -- 74
2019-09-26 06:00:00 14.7 10 Oeste 37 Noroeste 0 -- -- 75
2019-09-26 05:00:00 14.9 12 Oeste 31 Oeste 0 -- -- 74
2019-09-26 04:00:00 15 11 Noroeste 34 Sudoeste 0 -- -- 74
2019-09-26 03:00:00 15.1 13 Noroeste 36 Sudoeste 0 -- -- 75
2019-09-26 02:00:00 15.1 8 Noroeste 29 Sur 0 -- -- 77
2019-09-26 01:00:00 15.1 6 Noroeste 21 Sudoeste 0 -- -- 78
2019-09-26 00:00:00 15.5 9 Noroeste 28 Sudoeste 0 -- -- 77
2019-09-25 23:00:00 16 6 Noroeste 29 Oeste 0 -- -- 76
2019-09-25 22:00:00 16.2 8 Noroeste 23 Sudoeste 0 -- -- 76
2019-09-25 21:00:00 16.6 9 Noroeste 23 Oeste 0 -- -- 74
2019-09-25 20:00:00 17.3 10 Noroeste 28 Sur 0 -- -- 72
2019-09-25 19:00:00 18.3 10 Sudoeste 32 Oeste 0 -- -- 68
2019-09-25 18:00:00 19.6 14 Sudoeste 34 Sur 0 -- -- 63
2019-09-25 17:00:00 19.7 10 Noroeste 30 Sudoeste 0 -- -- 64
2019-09-25 16:00:00 18.7 12 Noroeste 30 Sudoeste 0 -- -- 66
2019-09-25 15:00:00 18.4 15 Sudoeste 34 Sudoeste 0 -- -- 66
2019-09-25 14:00:00 18.3 9 Noroeste 34 Sur 0 -- -- 69
2019-09-25 13:00:00 17.4 13 Sudoeste 36 Sudoeste 0 -- -- 70
2019-09-25 12:00:00 17.3 12 Oeste 33 Sur 0 -- -- 69
2019-09-25 11:00:00 15.7 12 Oeste 47 Sudoeste 0 -- -- 78
2019-09-25 10:00:00 15.4 15 Sudoeste 39 Oeste 0 -- -- 77
2019-09-25 09:00:00 13.9 9 Oeste 39 Sudoeste 0 -- -- 81
2019-09-25 08:00:00 13.9 17 Sudoeste 41 Sudoeste 0 -- -- 82
2019-09-25 07:00:00 13.6 10 Oeste 43 Sudoeste 0 -- -- 82
2019-09-25 06:00:00 14 14 Sudoeste 37 Sudoeste 0 -- -- 79
2019-09-25 05:00:00 14.1 13 Sudoeste 37 Sudoeste 0 -- -- 80
2019-09-25 04:00:00 14 12 Oeste 28 Sur 0 -- -- 82
2019-09-25 03:00:00 14.3 8 Oeste 34 Sudoeste 0 -- -- 79
2019-09-25 02:00:00 14.5 11 Oeste 35 Sur 0 -- -- 76
2019-09-25 01:00:00 14.4 8 Noroeste 25 Oeste 0 -- -- 76
2019-09-25 00:00:00 14.9 8 Noroeste 31 Sudoeste 0 -- -- 73
2019-09-24 23:00:00 15.2 6 Oeste 20 Oeste 0 -- -- 74
2019-09-24 22:00:00 16 8 Oeste 21 Noroeste 0 -- -- 71
2019-09-24 21:00:00 16.1 10 Noroeste 25 Noroeste 0 -- -- 73
2019-09-24 20:00:00 17.1 14 Noroeste 27 Noroeste 0 -- -- 71
2019-09-24 19:00:00 17.8 17 Noroeste 35 Noroeste 0 -- -- 72
2019-09-24 18:00:00 19.7 21 Noroeste 40 Noroeste 0 -- -- 59
2019-09-24 17:00:00 20.4 18 Noroeste 45 Oeste 0 -- -- 55
2019-09-24 16:00:00 20.4 15 Noroeste 39 Noroeste 0 -- -- 58
2019-09-24 15:00:00 19.9 15 Noroeste 36 Noroeste 0 -- -- 64
2019-09-24 14:00:00 19.9 10 Oeste 37 Noroeste 0 -- -- 63
2019-09-24 13:00:00 19.3 19 Noroeste 32 Noroeste 0 -- -- 75
2019-09-24 12:00:00 18.4 13 Noroeste 31 Noroeste 0 -- -- 78
2019-09-24 11:00:00 17.6 12 Noroeste 23 Noroeste 0 -- -- 85
2019-09-24 10:00:00 16.9 6 Noroeste 20 Oeste 0.2 -- -- 97
2019-09-24 09:00:00 16.7 8 Noroeste 39 Sudoeste 0.8 -- -- 95
2019-09-24 08:00:00 18.1 14 Sudoeste 50 Sudoeste 0 -- -- 84
2019-09-24 07:00:00 18.4 12 Noroeste 45 Sudoeste 0 -- -- 82
2019-09-24 06:00:00 18.2 20 Sudoeste 55 Sudoeste 0 -- -- 83
2019-09-24 05:00:00 19.2 17 Oeste 63 Sudoeste 0 -- -- 76
2019-09-24 04:00:00 19.6 21 Sudoeste 71 Sudoeste 0 -- -- 74
2019-09-24 03:00:00 20.2 35 Sudoeste 81 Sur 0 -- -- 70
2019-09-24 02:00:00 20 26 Sudoeste 64 Sur 0 -- -- 71
2019-09-24 01:00:00 20.2 23 Sudoeste 58 Sur 0 -- -- 69
2019-09-24 00:00:00 20.3 18 Sudoeste 56 Sur 0 -- -- 69
2019-09-23 23:00:00 19.9 15 Sudoeste 41 Sudoeste 0 -- -- 71
2019-09-23 22:00:00 19.4 12 Sur 30 Sur 0 -- -- 71
2019-09-23 21:00:00 19.4 17 Sudoeste 37 Sur 0 -- -- 71
2019-09-23 20:00:00 18.4 12 Sudoeste 33 Oeste 0 -- -- 73
2019-09-23 19:00:00 17.1 12 Sudoeste 37 Sudoeste 0.2 -- -- 79
2019-09-23 18:00:00 16.4 17 Sudoeste 47 Sur 1.4 -- -- 86
2019-09-23 17:00:00 17 19 Sudoeste 37 Sudoeste 1 -- -- 78
2019-09-23 16:00:00 15.8 15 Sudoeste 37 Sur 1.2 -- -- 82
2019-09-23 15:00:00 15.7 15 Sudoeste 42 Sudoeste 1 -- -- 83
2019-09-23 14:00:00 16.2 17 Sudoeste 40 Sur 0.6 -- -- 76
2019-09-23 13:00:00 17.6 11 Sudoeste 36 Sudoeste 0 -- -- 64
2019-09-23 12:00:00 16.7 19 Sudoeste 40 Sur 0 -- -- 65
2019-09-23 11:00:00 15.7 18 Sudoeste 50 Sudoeste 0 -- -- 73
2019-09-23 10:00:00 15.4 10 Sudoeste 21 Sur 0 -- -- 72
2019-09-23 09:00:00 15.2 7 Oeste 42 Sudoeste 0 -- -- 71
2019-09-23 08:00:00 15.1 18 Sur 42 Sur 0 -- -- 70
2019-09-23 07:00:00 14.8 11 Sudoeste 32 Sur 0 -- -- 74
2019-09-23 06:00:00 14.8 11 Sudoeste 21 Sudoeste 0 -- -- 74
2019-09-23 05:00:00 14.5 4 Noroeste 21 Sudoeste 0 -- -- 76
2019-09-23 04:00:00 14.3 3 Noroeste 15 Sudoeste 0 -- -- 77
2019-09-23 03:00:00 14.4 6 Oeste 19 Sudoeste 0 -- -- 78
2019-09-23 02:00:00 14.5 6 Sudoeste 22 Sur 0 -- -- 77
2019-09-23 01:00:00 13.8 10 Sur 24 Sur 0 -- -- 82
2019-09-23 00:00:00 14.2 4 Sur 15 Sur 0 -- -- 80
2019-09-22 23:00:00 14.6 3 Sur 13 Sudoeste 0 -- -- 80
2019-09-22 22:00:00 15.1 3 Sudeste 7 Noroeste 0 -- -- 85
2019-09-22 21:00:00 15.7 0 Calma 8 Nordeste 0 -- -- 82
2019-09-22 20:00:00 15.9 7 Este 9 Nordeste 0 -- -- 83
2019-09-22 19:00:00 15.9 3 Norte 14 Noroeste 0 -- -- 83
2019-09-22 18:00:00 15.6 12 Norte 38 Noroeste 0 -- -- 84
2019-09-22 17:00:00 17.7 9 Noroeste 34 Sudoeste 0 -- -- 71
2019-09-22 16:00:00 20 18 Sudoeste 41 Sur 0 -- -- 60
2019-09-22 15:00:00 20.3 9 Oeste 43 Oeste 0 -- -- 61
2019-09-22 14:00:00 19.2 9 Oeste 40 Sudoeste 0 -- -- 61
2019-09-22 13:00:00 17.7 16 Sudoeste 44 Sur 0 -- -- 65
2019-09-22 12:00:00 17.1 10 Sudoeste 36 Sudoeste 0 -- -- 73
2019-09-22 11:00:00 16 10 Oeste 33 Sudoeste 0 -- -- 73
2019-09-22 10:00:00 15.1 13 Oeste 37 Sur 0 -- -- 73
2019-09-22 09:00:00 14.1 15 Oeste 49 Oeste 0 -- -- 74
2019-09-22 08:00:00 14 15 Sudoeste 47 Sur 0 -- -- 74
2019-09-22 07:00:00 14.4 15 Sudoeste 46 Sudoeste 0 -- -- 75
2019-09-22 06:00:00 14.6 16 Oeste 48 Sudoeste 0 -- -- 77
2019-09-22 05:00:00 14.4 9 Oeste 32 Sudoeste 0 -- -- 84
2019-09-22 04:00:00 14.9 9 Noroeste 34 Sur 0 -- -- 80
2019-09-22 03:00:00 15 15 Oeste 48 Sudoeste 0 -- -- 79
2019-09-22 02:00:00 14.9 19 Sudoeste 51 Noroeste 0 -- -- 78
2019-09-22 01:00:00 14.6 17 Sudoeste 38 Sudoeste 0 -- -- 80
2019-09-22 00:00:00 14.3 12 Sudoeste 42 Sudoeste 0 -- -- 81
2019-09-21 23:00:00 14.3 14 Sudoeste 41 Sudoeste 0 -- -- 81
2019-09-21 22:00:00 14.6 10 Oeste 41 Sudoeste 0.2 -- -- 81
2019-09-21 21:00:00 15.4 5 Oeste 37 Noroeste 7.4 -- -- 100
2019-09-21 20:00:00 16.8 10 Noroeste 29 Sudeste 0.6 -- -- 100
2019-09-21 19:00:00 18.8 13 Este 21 Sudeste 1 -- -- 92
2019-09-21 18:00:00 24 5 Noroeste 35 Sur 0 -- -- 61
2019-09-21 17:00:00 23.9 16 Sudoeste 47 Sur 0 -- -- 61
2019-09-21 16:00:00 23.9 9 Sur 34 Sudoeste 0 -- -- 63
2019-09-21 15:00:00 22.2 11 Sur 41 Sudoeste 0 -- -- 64
2019-09-21 14:00:00 22 4 Noroeste 13 Sur 0 -- -- 73
2019-09-21 13:00:00 20.2 8 Este 11 Este 0 -- -- 79
2019-09-21 12:00:00 17.5 3 Este 24 Sudeste 0 -- -- 92
2019-09-21 11:00:00 17.6 10 Sudeste 18 Sudeste 0.6 -- -- 80
2019-09-21 10:00:00 16.5 7 Este 11 Oeste 0.4 -- -- 91
2019-09-21 09:00:00 17.4 4 Noroeste 9 Noroeste 0 -- -- 81
2019-09-21 08:00:00 16.2 5 Noroeste 15 Sudeste 0 -- -- 90
2019-09-21 07:00:00 15.7 15 Este 18 Este 0 -- -- 96
2019-09-21 06:00:00 16.3 10 Este 15 Este 0 -- -- 95
2019-09-21 05:00:00 15.6 11 Este 13 Este 0 -- -- 100
2019-09-21 04:00:00 15.7 9 Sur 13 Sur 0 -- -- 100
2019-09-21 03:00:00 15.5 4 Sudeste 11 Sudoeste 0 -- -- 100
2019-09-21 02:00:00 15.2 3 Sur 10 Sudoeste 0 -- -- 100
2019-09-21 01:00:00 15.3 3 Sudeste 10 Este 0 -- -- 100
2019-09-21 00:00:00 15.2 6 Sur 13 Sudoeste 0 -- -- 100
2019-09-20 23:00:00 14.8 6 Sudeste 10 Este 0 -- -- 100
2019-09-20 22:00:00 14.7 8 Nordeste 17 Oeste 0 -- -- 100
2019-09-20 21:00:00 15.4 12 Este 21 Nordeste 2 -- -- 100
2019-09-20 20:00:00 15.2 2 Sur 16 Sudoeste 0 -- -- 100
2019-09-20 19:00:00 15.2 10 Noroeste 15 Noroeste 0.2 -- -- 100
2019-09-20 18:00:00 16.3 4 Norte 17 Nordeste 0.2 -- -- 100
2019-09-20 17:00:00 17 3 Noroeste 15 Noroeste 4.8 -- -- 100
2019-09-20 16:00:00 17.6 4 Noroeste 12 Noroeste 0.2 -- -- 97
2019-09-20 15:00:00 21.4 8 Noroeste 12 Noroeste 0 -- -- 85
2019-09-20 14:00:00 21.5 4 Noroeste 8 Noroeste 0 -- -- 87
2019-09-20 13:00:00 20.8 0 Calma 5 Noroeste 0 -- -- 83
2019-09-20 12:00:00 21.2 0 Calma 8 Sudeste 0 -- -- 80
2019-09-20 11:00:00 20.1 4 Sudeste 9 Sur 0 -- -- 84
2019-09-20 10:00:00 17 0 Calma 8 Sudoeste 0 -- -- 94
2019-09-20 09:00:00 17.3 0 Calma 10 Este 0 -- -- 90
2019-09-20 08:00:00 16.1 5 Sur 16 Sudoeste 0 -- -- 96
2019-09-20 07:00:00 16.5 0 Calma 7 Este 0 -- -- 96
2019-09-20 06:00:00 16.1 0 Calma 8 Este 0 -- -- 99
2019-09-20 05:00:00 15.9 0 Calma 5 Noroeste 0 -- -- 100
2019-09-20 04:00:00 15.5 5 Este 8 Nordeste 0 -- -- 100
2019-09-20 03:00:00 14.7 6 Este 7 Nordeste 0 -- -- 100
2019-09-20 02:00:00 15.2 2 Sudeste 4 Sudeste 0 -- -- 100
2019-09-20 01:00:00 15.2 0 Calma 2 Sudeste 0 -- -- 100
2019-09-20 00:00:00 15.3 0 Calma 6 Sudeste 0 -- -- 100
2019-09-19 23:00:00 15.1 3 Sudeste 6 Sudeste 0 -- -- 100
2019-09-19 22:00:00 15.1 4 Este 7 Este 0 -- -- 100
2019-09-19 21:00:00 15.6 4 Sur 5 Sur 0 -- -- 99
2019-09-19 20:00:00 16.9 4 Oeste 10 Oeste 0 -- -- 94
2019-09-19 19:00:00 18.8 8 Noroeste 14 Noroeste 0 -- -- 87
2019-09-19 18:00:00 20.5 6 Noroeste 24 Sudeste 0 -- -- 81
2019-09-19 17:00:00 21.5 13 Sudeste 21 Este 0 -- -- 79
2019-09-19 16:00:00 22.4 11 Sudeste 23 Sur 0 -- -- 77
2019-09-19 15:00:00 22.3 9 Sudeste 23 Nordeste 0 -- -- 75
2019-09-19 14:00:00 21.9 11 Nordeste 23 Nordeste 0 -- -- 77
2019-09-19 13:00:00 20.7 11 Nordeste 22 Nordeste 0 -- -- 79
2019-09-19 12:00:00 20 12 Nordeste 21 Nordeste 0 -- -- 85
2019-09-19 11:00:00 19.1 2 Norte 8 Este 0 -- -- 91
2019-09-19 10:00:00 17.7 2 Sudeste 6 Sur 0 -- -- 97
2019-09-19 09:00:00 16 5 Nordeste 12 Nordeste 0 -- -- 98
2019-09-19 08:00:00 16 6 Nordeste 16 Este 0 -- -- 99
2019-09-19 07:00:00 16.1 6 Nordeste 12 Este 0 -- -- 100
2019-09-19 06:00:00 15.8 7 Este 13 Nordeste 0 -- -- 100
2019-09-19 05:00:00 15.9 5 Nordeste 10 Este 0 -- -- 100
2019-09-19 04:00:00 16 5 Nordeste 12 Nordeste 0 -- -- 100
2019-09-19 03:00:00 16.1 8 Nordeste 18 Este 0 -- -- 100
2019-09-19 02:00:00 16.1 13 Nordeste 18 Nordeste 0 -- -- 100
2019-09-19 01:00:00 16.4 7 Norte 14 Nordeste 0 -- -- 100
2019-09-19 00:00:00 16.7 2 Este 8 Nordeste 0 -- -- 100
2019-09-18 23:00:00 16.8 2 Nordeste 13 Este 0 -- -- 100
2019-09-18 22:00:00 17 6 Nordeste 10 Nordeste 0 -- -- 100
2019-09-18 21:00:00 17 4 Norte 23 Este 0 -- -- 100
2019-09-18 20:00:00 17.3 10 Nordeste 20 Nordeste 0 -- -- 100
2019-09-18 19:00:00 17.7 14 Nordeste 22 Este 0 -- -- 99
2019-09-18 18:00:00 19.1 7 Este 23 Este 0 -- -- 95
2019-09-18 17:00:00 18.7 14 Nordeste 24 Este 0 -- -- 97
2019-09-18 16:00:00 19.5 2 Sudoeste 10 Noroeste 0 -- -- 97
2019-09-18 15:00:00 18.6 9 Noroeste 15 Noroeste 0 -- -- 100
2019-09-18 14:00:00 18 5 Noroeste 13 Noroeste 0 -- -- 100
2019-09-18 13:00:00 18.1 9 Noroeste 13 Noroeste 0 -- -- 100
2019-09-18 12:00:00 18 0 Calma 6 Norte 0 -- -- 100
2019-09-18 11:00:00 16.5 4 Noroeste 6 Noroeste 0 -- -- 100
2019-09-18 10:00:00 15.3 4 Sur 7 Sudeste 0 -- -- 100
2019-09-18 09:00:00 15 0 Calma 6 Sur 0 -- -- 100
2019-09-18 08:00:00 14.9 3 Sudoeste 5 Noroeste 0 -- -- 100
2019-09-18 07:00:00 15.2 2 Oeste 9 Sudoeste 0 -- -- 100
2019-09-18 06:00:00 15.7 0 Calma 9 Este 0 -- -- 100
2019-09-18 05:00:00 15.9 4 Este 9 Este 0 -- -- 100
2019-09-18 04:00:00 15.9 4 Sur 8 Noroeste 0 -- -- 100
2019-09-18 03:00:00 16.3 4 Noroeste 7 Noroeste 0 -- -- 100
2019-09-18 02:00:00 16.1 5 Sudeste 8 Sudeste 0 -- -- 100
2019-09-18 01:00:00 16.6 6 Nordeste 9 Nordeste 0 -- -- 100
2019-09-18 00:00:00 16.9 4 Sur 13 Noroeste 0.2 -- -- 100